sensor_id;sensor_type;location;lat;lon;timestamp;P1;durP1;ratioP1;P2;durP2;ratioP2
54935;SDS011;40838;50.676;7.838;2024-03-23T00:53:42;60.55;;;25.63;;
54935;SDS011;40838;50.676;7.838;2024-03-23T00:56:09;56.40;;;24.23;;
54935;SDS011;40838;50.676;7.838;2024-03-23T00:58:35;54.88;;;24.70;;
54935;SDS011;40838;50.676;7.838;2024-03-23T01:01:02;59.67;;;25.50;;
54935;SDS011;40838;50.676;7.838;2024-03-23T01:03:29;55.00;;;23.17;;
54935;SDS011;40838;50.676;7.838;2024-03-23T01:05:58;65.70;;;26.98;;
54935;SDS011;40838;50.676;7.838;2024-03-23T01:08:24;58.28;;;25.63;;
54935;SDS011;40838;50.676;7.838;2024-03-23T01:10:56;64.65;;;26.50;;
54935;SDS011;40838;50.676;7.838;2024-03-23T01:13:22;54.00;;;23.27;;
54935;SDS011;40838;50.676;7.838;2024-03-23T01:15:49;51.25;;;23.45;;
54935;SDS011;40838;50.676;7.838;2024-03-23T01:18:16;61.67;;;24.55;;
54935;SDS011;40838;50.676;7.838;2024-03-23T01:20:44;58.60;;;26.35;;
54935;SDS011;40838;50.676;7.838;2024-03-23T01:23:10;62.28;;;24.65;;
54935;SDS011;40838;50.676;7.838;2024-03-23T01:25:37;62.80;;;25.88;;
54935;SDS011;40838;50.676;7.838;2024-03-23T01:28:05;70.43;;;28.10;;
54935;SDS011;40838;50.676;7.838;2024-03-23T01:30:33;72.15;;;29.25;;
54935;SDS011;40838;50.676;7.838;2024-03-23T01:32:59;62.75;;;26.23;;
54935;SDS011;40838;50.676;7.838;2024-03-23T01:35:26;50.25;;;21.48;;
54935;SDS011;40838;50.676;7.838;2024-03-23T01:37:52;36.83;;;16.17;;
54935;SDS011;40838;50.676;7.838;2024-03-23T01:40:19;29.75;;;12.57;;
54935;SDS011;40838;50.676;7.838;2024-03-23T01:42:54;21.13;;;9.15;;
54935;SDS011;40838;50.676;7.838;2024-03-23T01:45:23;16.85;;;8.10;;
54935;SDS011;40838;50.676;7.838;2024-03-23T01:47:50;14.32;;;6.65;;
54935;SDS011;40838;50.676;7.838;2024-03-23T01:50:18;10.48;;;5.85;;
54935;SDS011;40838;50.676;7.838;2024-03-23T01:52:44;10.20;;;6.28;;
54935;SDS011;40838;50.676;7.838;2024-03-23T01:55:11;8.02;;;4.15;;
54935;SDS011;40838;50.676;7.838;2024-03-23T01:57:37;5.63;;;3.70;;
54935;SDS011;40838;50.676;7.838;2024-03-23T02:00:05;6.10;;;3.42;;
54935;SDS011;40838;50.676;7.838;2024-03-23T02:02:41;5.38;;;3.10;;
54935;SDS011;40838;50.676;7.838;2024-03-23T02:05:09;9.48;;;3.30;;
54935;SDS011;40838;50.676;7.838;2024-03-23T02:07:37;7.55;;;3.13;;
54935;SDS011;40838;50.676;7.838;2024-03-23T02:10:05;7.32;;;3.20;;
54935;SDS011;40838;50.676;7.838;2024-03-23T02:12:31;4.80;;;2.70;;
54935;SDS011;40838;50.676;7.838;2024-03-23T02:14:58;3.60;;;2.65;;
54935;SDS011;40838;50.676;7.838;2024-03-23T02:17:24;6.93;;;2.85;;
54935;SDS011;40838;50.676;7.838;2024-03-23T02:19:53;6.00;;;2.25;;
54935;SDS011;40838;50.676;7.838;2024-03-23T02:22:19;8.10;;;2.88;;
54935;SDS011;40838;50.676;7.838;2024-03-23T02:24:47;5.10;;;1.85;;
54935;SDS011;40838;50.676;7.838;2024-03-23T02:27:14;4.93;;;2.03;;
54935;SDS011;40838;50.676;7.838;2024-03-23T02:29:41;3.63;;;2.38;;
54935;SDS011;40838;50.676;7.838;2024-03-23T02:32:07;4.93;;;2.58;;
54935;SDS011;40838;50.676;7.838;2024-03-23T02:34:35;2.45;;;1.95;;
54935;SDS011;40838;50.676;7.838;2024-03-23T02:37:01;3.53;;;2.03;;
54935;SDS011;40838;50.676;7.838;2024-03-23T02:39:28;3.35;;;2.00;;
54935;SDS011;40838;50.676;7.838;2024-03-23T02:41:56;4.07;;;2.00;;
54935;SDS011;40838;50.676;7.838;2024-03-23T02:44:23;4.82;;;1.80;;
54935;SDS011;40838;50.676;7.838;2024-03-23T02:46:49;2.58;;;2.10;;
54935;SDS011;40838;50.676;7.838;2024-03-23T02:49:16;3.55;;;1.90;;
54935;SDS011;40838;50.676;7.838;2024-03-23T02:51:42;3.90;;;2.40;;
54935;SDS011;40838;50.676;7.838;2024-03-23T02:54:10;6.97;;;3.30;;
54935;SDS011;40838;50.676;7.838;2024-03-23T02:56:36;5.18;;;2.53;;
54935;SDS011;40838;50.676;7.838;2024-03-23T02:59:05;6.00;;;3.10;;
54935;SDS011;40838;50.676;7.838;2024-03-23T03:01:31;4.07;;;2.72;;
54935;SDS011;40838;50.676;7.838;2024-03-23T03:03:58;8.23;;;3.15;;
54935;SDS011;40838;50.676;7.838;2024-03-23T03:06:31;4.75;;;2.70;;
54935;SDS011;40838;50.676;7.838;2024-03-23T03:08:58;6.10;;;2.90;;
54935;SDS011;40838;50.676;7.838;2024-03-23T03:11:24;8.55;;;2.97;;
54935;SDS011;40838;50.676;7.838;2024-03-23T03:13:52;6.10;;;2.90;;
54935;SDS011;40838;50.676;7.838;2024-03-23T03:16:19;5.43;;;3.20;;
54935;SDS011;40838;50.676;7.838;2024-03-23T03:18:46;7.35;;;3.88;;
54935;SDS011;40838;50.676;7.838;2024-03-23T03:21:12;5.40;;;3.63;;
54935;SDS011;40838;50.676;7.838;2024-03-23T03:23:41;6.32;;;3.88;;
54935;SDS011;40838;50.676;7.838;2024-03-23T03:26:08;9.30;;;3.25;;
54935;SDS011;40838;50.676;7.838;2024-03-23T03:28:35;9.35;;;3.72;;
54935;SDS011;40838;50.676;7.838;2024-03-23T03:31:01;8.23;;;3.88;;
54935;SDS011;40838;50.676;7.838;2024-03-23T03:33:30;5.70;;;3.10;;
54935;SDS011;40838;50.676;7.838;2024-03-23T03:35:56;7.65;;;3.58;;
54935;SDS011;40838;50.676;7.838;2024-03-23T03:38:24;10.88;;;4.47;;
54935;SDS011;40838;50.676;7.838;2024-03-23T03:40:50;9.75;;;3.78;;
54935;SDS011;40838;50.676;7.838;2024-03-23T03:43:18;11.43;;;4.38;;
54935;SDS011;40838;50.676;7.838;2024-03-23T03:45:50;9.27;;;4.05;;
54935;SDS011;40838;50.676;7.838;2024-03-23T03:48:18;11.02;;;4.85;;
54935;SDS011;40838;50.676;7.838;2024-03-23T03:50:46;9.93;;;4.50;;
54935;SDS011;40838;50.676;7.838;2024-03-23T03:53:13;9.93;;;3.83;;
54935;SDS011;40838;50.676;7.838;2024-03-23T03:55:39;8.93;;;3.92;;
54935;SDS011;40838;50.676;7.838;2024-03-23T03:58:06;8.43;;;3.60;;
54935;SDS011;40838;50.676;7.838;2024-03-23T04:00:33;8.43;;;3.70;;
54935;SDS011;40838;50.676;7.838;2024-03-23T04:03:00;9.25;;;3.50;;
54935;SDS011;40838;50.676;7.838;2024-03-23T04:05:27;6.70;;;3.50;;
54935;SDS011;40838;50.676;7.838;2024-03-23T04:07:55;8.32;;;3.13;;
54935;SDS011;40838;50.676;7.838;2024-03-23T04:10:22;3.72;;;2.40;;
54935;SDS011;40838;50.676;7.838;2024-03-23T04:12:50;3.40;;;2.10;;
54935;SDS011;40838;50.676;7.838;2024-03-23T04:15:16;4.07;;;1.70;;
54935;SDS011;40838;50.676;7.838;2024-03-23T04:17:44;6.68;;;2.03;;
54935;SDS011;40838;50.676;7.838;2024-03-23T04:20:10;3.72;;;1.63;;
54935;SDS011;40838;50.676;7.838;2024-03-23T04:22:41;2.55;;;1.10;;
54935;SDS011;40838;50.676;7.838;2024-03-23T04:25:08;2.00;;;1.30;;
54935;SDS011;40838;50.676;7.838;2024-03-23T04:27:35;4.07;;;1.38;;
54935;SDS011;40838;50.676;7.838;2024-03-23T04:30:02;3.05;;;1.40;;
54935;SDS011;40838;50.676;7.838;2024-03-23T04:32:35;2.05;;;1.15;;
54935;SDS011;40838;50.676;7.838;2024-03-23T04:35:01;3.90;;;1.10;;
54935;SDS011;40838;50.676;7.838;2024-03-23T04:37:31;4.10;;;1.58;;
54935;SDS011;40838;50.676;7.838;2024-03-23T04:39:59;4.93;;;1.70;;
54935;SDS011;40838;50.676;7.838;2024-03-23T04:42:28;4.80;;;1.73;;
54935;SDS011;40838;50.676;7.838;2024-03-23T04:44:55;7.88;;;1.58;;
54935;SDS011;40838;50.676;7.838;2024-03-23T04:47:23;3.17;;;1.65;;
54935;SDS011;40838;50.676;7.838;2024-03-23T04:49:50;5.13;;;1.70;;
54935;SDS011;40838;50.676;7.838;2024-03-23T04:52:16;5.45;;;1.73;;
54935;SDS011;40838;50.676;7.838;2024-03-23T04:54:44;5.60;;;1.75;;
54935;SDS011;40838;50.676;7.838;2024-03-23T04:57:11;7.18;;;2.05;;
54935;SDS011;40838;50.676;7.838;2024-03-23T04:59:47;6.70;;;2.03;;
54935;SDS011;40838;50.676;7.838;2024-03-23T05:02:13;4.15;;;1.60;;
54935;SDS011;40838;50.676;7.838;2024-03-23T05:04:40;6.20;;;1.70;;
54935;SDS011;40838;50.676;7.838;2024-03-23T05:07:07;5.22;;;2.08;;
54935;SDS011;40838;50.676;7.838;2024-03-23T05:09:34;10.75;;;2.35;;
54935;SDS011;40838;50.676;7.838;2024-03-23T05:12:00;13.32;;;2.67;;
54935;SDS011;40838;50.676;7.838;2024-03-23T05:14:28;7.15;;;1.77;;
54935;SDS011;40838;50.676;7.838;2024-03-23T05:16:55;7.55;;;2.45;;
54935;SDS011;40838;50.676;7.838;2024-03-23T05:19:23;4.85;;;1.75;;
54935;SDS011;40838;50.676;7.838;2024-03-23T05:21:49;3.92;;;1.63;;
54935;SDS011;40838;50.676;7.838;2024-03-23T05:24:16;8.77;;;1.90;;
54935;SDS011;40838;50.676;7.838;2024-03-23T05:26:42;13.35;;;2.70;;
54935;SDS011;40838;50.676;7.838;2024-03-23T05:29:09;8.00;;;2.47;;
54935;SDS011;40838;50.676;7.838;2024-03-23T05:31:38;15.98;;;2.75;;
54935;SDS011;40838;50.676;7.838;2024-03-23T05:34:08;3.80;;;1.83;;
54935;SDS011;40838;50.676;7.838;2024-03-23T05:36:34;7.32;;;2.03;;
54935;SDS011;40838;50.676;7.838;2024-03-23T05:39:02;7.05;;;2.47;;
54935;SDS011;40838;50.676;7.838;2024-03-23T05:41:29;10.10;;;2.67;;
54935;SDS011;40838;50.676;7.838;2024-03-23T05:43:56;8.32;;;1.92;;
54935;SDS011;40838;50.676;7.838;2024-03-23T05:46:22;16.08;;;2.30;;
54935;SDS011;40838;50.676;7.838;2024-03-23T05:48:49;9.00;;;2.15;;
54935;SDS011;40838;50.676;7.838;2024-03-23T05:51:17;17.60;;;3.17;;
54935;SDS011;40838;50.676;7.838;2024-03-23T05:53:44;5.93;;;2.28;;
54935;SDS011;40838;50.676;7.838;2024-03-23T05:56:10;12.23;;;3.58;;
54935;SDS011;40838;50.676;7.838;2024-03-23T05:58:38;10.07;;;3.33;;
54935;SDS011;40838;50.676;7.838;2024-03-23T06:01:05;9.20;;;2.90;;
54935;SDS011;40838;50.676;7.838;2024-03-23T06:03:31;11.80;;;2.28;;
54935;SDS011;40838;50.676;7.838;2024-03-23T06:05:58;13.10;;;2.95;;
54935;SDS011;40838;50.676;7.838;2024-03-23T06:08:25;12.73;;;3.42;;
54935;SDS011;40838;50.676;7.838;2024-03-23T06:10:52;5.82;;;2.83;;
54935;SDS011;40838;50.676;7.838;2024-03-23T06:13:18;9.73;;;2.95;;
54935;SDS011;40838;50.676;7.838;2024-03-23T06:15:50;10.98;;;3.17;;
54935;SDS011;40838;50.676;7.838;2024-03-23T06:18:16;8.05;;;3.58;;
54935;SDS011;40838;50.676;7.838;2024-03-23T06:20:43;10.10;;;3.90;;
54935;SDS011;40838;50.676;7.838;2024-03-23T06:23:09;13.35;;;4.05;;
54935;SDS011;40838;50.676;7.838;2024-03-23T06:25:39;12.13;;;3.45;;
54935;SDS011;40838;50.676;7.838;2024-03-23T06:28:05;13.80;;;4.57;;
54935;SDS011;40838;50.676;7.838;2024-03-23T06:30:32;17.70;;;4.63;;
54935;SDS011;40838;50.676;7.838;2024-03-23T06:32:58;19.50;;;5.32;;
54935;SDS011;40838;50.676;7.838;2024-03-23T06:35:25;17.08;;;5.22;;
54935;SDS011;40838;50.676;7.838;2024-03-23T06:37:52;22.13;;;5.28;;
54935;SDS011;40838;50.676;7.838;2024-03-23T06:40:19;19.30;;;5.10;;
54935;SDS011;40838;50.676;7.838;2024-03-23T06:42:47;21.73;;;4.90;;
54935;SDS011;40838;50.676;7.838;2024-03-23T06:45:14;25.67;;;5.20;;
54935;SDS011;40838;50.676;7.838;2024-03-23T06:47:40;22.00;;;5.15;;
54935;SDS011;40838;50.676;7.838;2024-03-23T06:50:07;19.42;;;4.88;;
54935;SDS011;40838;50.676;7.838;2024-03-23T06:52:35;21.50;;;5.03;;
54935;SDS011;40838;50.676;7.838;2024-03-23T06:55:02;16.15;;;5.03;;
54935;SDS011;40838;50.676;7.838;2024-03-23T06:57:29;18.90;;;5.15;;
54935;SDS011;40838;50.676;7.838;2024-03-23T06:59:59;22.80;;;6.13;;
54935;SDS011;40838;50.676;7.838;2024-03-23T07:02:24;23.80;;;6.50;;
54935;SDS011;40838;50.676;7.838;2024-03-23T07:04:51;19.23;;;5.85;;
54935;SDS011;40838;50.676;7.838;2024-03-23T07:07:17;25.00;;;6.88;;
54935;SDS011;40838;50.676;7.838;2024-03-23T07:09:44;20.92;;;7.25;;
54935;SDS011;40838;50.676;7.838;2024-03-23T07:12:10;20.77;;;7.10;;
54935;SDS011;40838;50.676;7.838;2024-03-23T07:14:38;31.73;;;7.35;;
54935;SDS011;40838;50.676;7.838;2024-03-23T07:17:06;14.27;;;6.82;;
54935;SDS011;40838;50.676;7.838;2024-03-23T07:19:33;24.85;;;7.93;;
54935;SDS011;40838;50.676;7.838;2024-03-23T07:21:59;23.88;;;6.80;;
54935;SDS011;40838;50.676;7.838;2024-03-23T07:24:26;22.38;;;6.78;;
54935;SDS011;40838;50.676;7.838;2024-03-23T07:26:52;23.77;;;6.40;;
54935;SDS011;40838;50.676;7.838;2024-03-23T07:29:19;17.98;;;6.22;;
54935;SDS011;40838;50.676;7.838;2024-03-23T07:31:46;22.52;;;7.28;;
54935;SDS011;40838;50.676;7.838;2024-03-23T07:34:14;23.30;;;6.97;;
54935;SDS011;40838;50.676;7.838;2024-03-23T07:36:41;19.75;;;6.93;;
54935;SDS011;40838;50.676;7.838;2024-03-23T07:39:07;16.95;;;5.95;;
54935;SDS011;40838;50.676;7.838;2024-03-23T07:41:34;18.63;;;6.10;;
54935;SDS011;40838;50.676;7.838;2024-03-23T07:44:00;13.45;;;5.25;;
54935;SDS011;40838;50.676;7.838;2024-03-23T07:46:27;19.77;;;5.10;;
54935;SDS011;40838;50.676;7.838;2024-03-23T07:48:53;23.23;;;5.97;;
54935;SDS011;40838;50.676;7.838;2024-03-23T07:51:22;19.33;;;4.90;;
54935;SDS011;40838;50.676;7.838;2024-03-23T07:53:48;18.40;;;6.75;;
54935;SDS011;40838;50.676;7.838;2024-03-23T07:56:16;20.20;;;5.07;;
54935;SDS011;40838;50.676;7.838;2024-03-23T07:58:43;24.00;;;4.97;;
54935;SDS011;40838;50.676;7.838;2024-03-23T08:01:11;19.00;;;5.90;;
54935;SDS011;40838;50.676;7.838;2024-03-23T08:03:38;24.17;;;5.60;;
54935;SDS011;40838;50.676;7.838;2024-03-23T08:06:06;20.85;;;5.53;;
54935;SDS011;40838;50.676;7.838;2024-03-23T08:08:35;22.80;;;5.65;;
54935;SDS011;40838;50.676;7.838;2024-03-23T08:11:02;24.75;;;5.57;;
54935;SDS011;40838;50.676;7.838;2024-03-23T08:13:28;16.65;;;5.00;;
54935;SDS011;40838;50.676;7.838;2024-03-23T08:15:56;21.92;;;6.82;;
54935;SDS011;40838;50.676;7.838;2024-03-23T08:18:22;12.85;;;4.82;;
54935;SDS011;40838;50.676;7.838;2024-03-23T08:20:59;20.92;;;5.93;;
54935;SDS011;40838;50.676;7.838;2024-03-23T08:23:25;16.17;;;4.78;;
54935;SDS011;40838;50.676;7.838;2024-03-23T08:25:58;15.65;;;4.30;;
54935;SDS011;40838;50.676;7.838;2024-03-23T08:28:25;28.63;;;5.10;;
54935;SDS011;40838;50.676;7.838;2024-03-23T08:30:53;16.08;;;4.40;;
54935;SDS011;40838;50.676;7.838;2024-03-23T08:33:19;12.02;;;4.53;;
54935;SDS011;40838;50.676;7.838;2024-03-23T08:35:52;21.33;;;5.63;;
54935;SDS011;40838;50.676;7.838;2024-03-23T08:38:21;20.58;;;4.55;;
54935;SDS011;40838;50.676;7.838;2024-03-23T08:40:47;14.02;;;4.68;;
54935;SDS011;40838;50.676;7.838;2024-03-23T08:43:15;16.63;;;4.43;;
54935;SDS011;40838;50.676;7.838;2024-03-23T08:45:41;11.82;;;3.85;;
54935;SDS011;40838;50.676;7.838;2024-03-23T08:48:08;19.40;;;5.25;;
54935;SDS011;40838;50.676;7.838;2024-03-23T08:50:34;21.23;;;5.38;;
54935;SDS011;40838;50.676;7.838;2024-03-23T08:53:01;20.15;;;5.00;;
54935;SDS011;40838;50.676;7.838;2024-03-23T08:55:28;13.93;;;4.75;;
54935;SDS011;40838;50.676;7.838;2024-03-23T08:57:55;23.65;;;6.28;;
54935;SDS011;40838;50.676;7.838;2024-03-23T09:00:22;16.25;;;5.00;;
54935;SDS011;40838;50.676;7.838;2024-03-23T09:02:49;15.13;;;4.55;;
54935;SDS011;40838;50.676;7.838;2024-03-23T09:05:16;15.15;;;4.80;;
54935;SDS011;40838;50.676;7.838;2024-03-23T09:07:44;17.48;;;4.30;;
54935;SDS011;40838;50.676;7.838;2024-03-23T09:10:10;11.05;;;4.88;;
54935;SDS011;40838;50.676;7.838;2024-03-23T09:12:43;14.25;;;4.43;;
54935;SDS011;40838;50.676;7.838;2024-03-23T09:15:09;19.58;;;4.47;;
54935;SDS011;40838;50.676;7.838;2024-03-23T09:17:39;13.70;;;4.30;;
54935;SDS011;40838;50.676;7.838;2024-03-23T09:20:05;11.32;;;3.97;;
54935;SDS011;40838;50.676;7.838;2024-03-23T09:22:32;11.90;;;3.80;;
54935;SDS011;40838;50.676;7.838;2024-03-23T09:24:58;11.13;;;3.50;;
54935;SDS011;40838;50.676;7.838;2024-03-23T09:27:25;13.48;;;3.10;;
54935;SDS011;40838;50.676;7.838;2024-03-23T09:29:51;14.38;;;2.83;;
54935;SDS011;40838;50.676;7.838;2024-03-23T09:32:18;10.45;;;3.30;;
54935;SDS011;40838;50.676;7.838;2024-03-23T09:34:45;8.02;;;2.72;;
54935;SDS011;40838;50.676;7.838;2024-03-23T09:37:11;12.38;;;3.15;;
54935;SDS011;40838;50.676;7.838;2024-03-23T09:39:37;11.82;;;2.80;;
54935;SDS011;40838;50.676;7.838;2024-03-23T09:42:04;15.88;;;3.85;;
54935;SDS011;40838;50.676;7.838;2024-03-23T09:44:31;9.00;;;2.42;;
54935;SDS011;40838;50.676;7.838;2024-03-23T09:46:58;9.70;;;2.28;;
54935;SDS011;40838;50.676;7.838;2024-03-23T09:49:24;8.25;;;2.50;;
54935;SDS011;40838;50.676;7.838;2024-03-23T09:51:53;5.72;;;2.13;;
54935;SDS011;40838;50.676;7.838;2024-03-23T09:54:20;10.48;;;2.83;;
54935;SDS011;40838;50.676;7.838;2024-03-23T09:56:47;11.45;;;2.78;;
54935;SDS011;40838;50.676;7.838;2024-03-23T09:59:13;12.48;;;2.90;;
54935;SDS011;40838;50.676;7.838;2024-03-23T10:01:40;8.38;;;2.45;;
54935;SDS011;40838;50.676;7.838;2024-03-23T10:04:06;7.40;;;2.38;;
54935;SDS011;40838;50.676;7.838;2024-03-23T10:06:33;24.15;;;3.83;;
54935;SDS011;40838;50.676;7.838;2024-03-23T10:09:01;12.55;;;3.00;;
54935;SDS011;40838;50.676;7.838;2024-03-23T10:11:28;7.65;;;3.25;;
54935;SDS011;40838;50.676;7.838;2024-03-23T10:13:54;9.70;;;2.83;;
54935;SDS011;40838;50.676;7.838;2024-03-23T10:16:22;13.10;;;2.88;;
54935;SDS011;40838;50.676;7.838;2024-03-23T10:18:48;8.05;;;2.95;;
54935;SDS011;40838;50.676;7.838;2024-03-23T10:21:16;8.00;;;2.63;;
54935;SDS011;40838;50.676;7.838;2024-03-23T10:23:43;10.43;;;2.92;;
54935;SDS011;40838;50.676;7.838;2024-03-23T10:26:18;8.00;;;2.90;;
54935;SDS011;40838;50.676;7.838;2024-03-23T10:28:53;13.40;;;3.90;;
54935;SDS011;40838;50.676;7.838;2024-03-23T10:31:26;6.18;;;3.05;;
54935;SDS011;40838;50.676;7.838;2024-03-23T10:33:52;17.30;;;4.57;;
54935;SDS011;40838;50.676;7.838;2024-03-23T10:36:20;10.88;;;3.53;;
54935;SDS011;40838;50.676;7.838;2024-03-23T10:38:46;11.45;;;3.65;;
54935;SDS011;40838;50.676;7.838;2024-03-23T10:41:16;11.88;;;3.42;;
54935;SDS011;40838;50.676;7.838;2024-03-23T10:43:44;13.35;;;3.47;;
54935;SDS011;40838;50.676;7.838;2024-03-23T10:46:12;14.23;;;4.03;;
54935;SDS011;40838;50.676;7.838;2024-03-23T10:48:38;6.68;;;2.38;;
54935;SDS011;40838;50.676;7.838;2024-03-23T10:53:33;12.20;;;3.47;;
54935;SDS011;40838;50.676;7.838;2024-03-23T10:56:02;8.02;;;2.03;;
54935;SDS011;40838;50.676;7.838;2024-03-23T10:58:30;8.93;;;1.77;;
54935;SDS011;40838;50.676;7.838;2024-03-23T11:01:01;16.95;;;2.55;;
54935;SDS011;40838;50.676;7.838;2024-03-23T11:03:32;9.85;;;1.73;;
54935;SDS011;40838;50.676;7.838;2024-03-23T11:06:01;7.93;;;2.15;;
54935;SDS011;40838;50.676;7.838;2024-03-23T11:08:35;9.43;;;2.60;;
54935;SDS011;40838;50.676;7.838;2024-03-23T11:11:13;11.35;;;1.90;;
54935;SDS011;40838;50.676;7.838;2024-03-23T11:13:39;6.00;;;2.30;;
54935;SDS011;40838;50.676;7.838;2024-03-23T11:16:14;5.90;;;1.52;;
54935;SDS011;40838;50.676;7.838;2024-03-23T11:18:41;5.07;;;1.30;;
54935;SDS011;40838;50.676;7.838;2024-03-23T11:21:09;5.93;;;1.30;;
54935;SDS011;40838;50.676;7.838;2024-03-23T11:23:35;7.53;;;1.92;;
54935;SDS011;40838;50.676;7.838;2024-03-23T11:26:01;6.32;;;1.63;;
54935;SDS011;40838;50.676;7.838;2024-03-23T11:28:27;5.15;;;1.55;;
54935;SDS011;40838;50.676;7.838;2024-03-23T11:30:54;3.85;;;1.40;;
54935;SDS011;40838;50.676;7.838;2024-03-23T11:33:23;1.95;;;1.00;;
54935;SDS011;40838;50.676;7.838;2024-03-23T11:35:50;2.55;;;1.02;;
54935;SDS011;40838;50.676;7.838;2024-03-23T11:38:17;0.80;;;0.50;;
54935;SDS011;40838;50.676;7.838;2024-03-23T11:40:44;0.90;;;0.60;;
54935;SDS011;40838;50.676;7.838;2024-03-23T11:43:12;2.92;;;1.00;;
54935;SDS011;40838;50.676;7.838;2024-03-23T11:45:40;2.53;;;0.45;;
54935;SDS011;40838;50.676;7.838;2024-03-23T11:48:08;2.28;;;0.77;;
54935;SDS011;40838;50.676;7.838;2024-03-23T11:50:38;3.25;;;1.35;;
54935;SDS011;40838;50.676;7.838;2024-03-23T11:53:06;0.55;;;0.40;;
54935;SDS011;40838;50.676;7.838;2024-03-23T11:55:40;0.40;;;0.40;;
54935;SDS011;40838;50.676;7.838;2024-03-23T11:58:09;1.08;;;0.52;;
54935;SDS011;40838;50.676;7.838;2024-03-23T12:00:37;1.58;;;0.40;;
54935;SDS011;40838;50.676;7.838;2024-03-23T12:03:04;0.80;;;0.50;;
54935;SDS011;40838;50.676;7.838;2024-03-23T12:05:32;2.78;;;0.90;;
54935;SDS011;40838;50.676;7.838;2024-03-23T12:08:19;2.53;;;0.50;;
54935;SDS011;40838;50.676;7.838;2024-03-23T12:10:48;4.35;;;0.98;;
54935;SDS011;40838;50.676;7.838;2024-03-23T12:13:16;1.38;;;0.75;;
54935;SDS011;40838;50.676;7.838;2024-03-23T12:15:44;2.13;;;0.90;;
54935;SDS011;40838;50.676;7.838;2024-03-23T12:18:10;5.65;;;1.63;;
54935;SDS011;40838;50.676;7.838;2024-03-23T12:20:37;2.35;;;1.52;;
54935;SDS011;40838;50.676;7.838;2024-03-23T12:23:04;4.78;;;1.48;;
54935;SDS011;40838;50.676;7.838;2024-03-23T12:25:39;2.80;;;1.40;;
54935;SDS011;40838;50.676;7.838;2024-03-23T12:28:05;5.03;;;1.75;;
54935;SDS011;40838;50.676;7.838;2024-03-23T12:30:33;9.30;;;2.25;;
54935;SDS011;40838;50.676;7.838;2024-03-23T12:33:00;3.88;;;1.60;;
54935;SDS011;40838;50.676;7.838;2024-03-23T12:35:28;5.47;;;2.10;;
54935;SDS011;40838;50.676;7.838;2024-03-23T12:37:54;3.47;;;1.60;;
54935;SDS011;40838;50.676;7.838;2024-03-23T12:40:21;4.47;;;1.17;;
54935;SDS011;40838;50.676;7.838;2024-03-23T12:42:48;3.33;;;1.10;;
54935;SDS011;40838;50.676;7.838;2024-03-23T12:45:15;6.43;;;1.45;;
54935;SDS011;40838;50.676;7.838;2024-03-23T12:47:41;7.63;;;2.47;;
54935;SDS011;40838;50.676;7.838;2024-03-23T12:50:08;7.65;;;1.92;;
54935;SDS011;40838;50.676;7.838;2024-03-23T12:52:35;3.20;;;1.30;;
54935;SDS011;40838;50.676;7.838;2024-03-23T12:55:02;4.00;;;1.95;;
54935;SDS011;40838;50.676;7.838;2024-03-23T12:57:28;6.43;;;2.38;;
54935;SDS011;40838;50.676;7.838;2024-03-23T12:59:58;6.03;;;1.75;;
54935;SDS011;40838;50.676;7.838;2024-03-23T13:02:24;7.00;;;2.50;;
54935;SDS011;40838;50.676;7.838;2024-03-23T13:04:51;4.35;;;1.40;;
54935;SDS011;40838;50.676;7.838;2024-03-23T13:07:18;7.53;;;1.85;;
54935;SDS011;40838;50.676;7.838;2024-03-23T13:09:46;8.18;;;1.73;;
54935;SDS011;40838;50.676;7.838;2024-03-23T13:12:12;3.67;;;1.42;;
54935;SDS011;40838;50.676;7.838;2024-03-23T13:14:39;4.20;;;1.52;;
54935;SDS011;40838;50.676;7.838;2024-03-23T13:17:07;5.05;;;2.30;;
54935;SDS011;40838;50.676;7.838;2024-03-23T13:19:34;4.72;;;1.83;;
54935;SDS011;40838;50.676;7.838;2024-03-23T13:22:00;5.40;;;1.75;;
54935;SDS011;40838;50.676;7.838;2024-03-23T13:24:27;4.72;;;2.35;;
54935;SDS011;40838;50.676;7.838;2024-03-23T13:26:54;7.60;;;2.33;;
54935;SDS011;40838;50.676;7.838;2024-03-23T13:29:22;7.53;;;1.77;;
54935;SDS011;40838;50.676;7.838;2024-03-23T13:31:49;4.43;;;2.20;;
54935;SDS011;40838;50.676;7.838;2024-03-23T13:34:18;4.75;;;2.45;;
54935;SDS011;40838;50.676;7.838;2024-03-23T13:36:45;7.93;;;2.88;;
54935;SDS011;40838;50.676;7.838;2024-03-23T13:39:13;3.30;;;1.33;;
54935;SDS011;40838;50.676;7.838;2024-03-23T13:41:41;6.47;;;1.75;;
54935;SDS011;40838;50.676;7.838;2024-03-23T13:44:09;4.22;;;1.30;;
54935;SDS011;40838;50.676;7.838;2024-03-23T13:46:37;6.63;;;1.25;;
54935;SDS011;40838;50.676;7.838;2024-03-23T13:49:04;2.97;;;1.30;;
54935;SDS011;40838;50.676;7.838;2024-03-23T13:51:33;3.80;;;0.95;;
54935;SDS011;40838;50.676;7.838;2024-03-23T13:53:59;3.90;;;1.40;;
54935;SDS011;40838;50.676;7.838;2024-03-23T13:56:27;13.52;;;1.77;;
54935;SDS011;40838;50.676;7.838;2024-03-23T13:58:54;6.80;;;1.40;;
54935;SDS011;40838;50.676;7.838;2024-03-23T14:01:21;4.72;;;1.40;;
54935;SDS011;40838;50.676;7.838;2024-03-23T14:03:47;3.70;;;2.03;;
54935;SDS011;40838;50.676;7.838;2024-03-23T14:06:14;4.82;;;1.40;;
54935;SDS011;40838;50.676;7.838;2024-03-23T14:08:42;3.20;;;1.10;;
54935;SDS011;40838;50.676;7.838;2024-03-23T14:11:11;4.22;;;1.52;;
54935;SDS011;40838;50.676;7.838;2024-03-23T14:13:37;8.98;;;2.35;;
54935;SDS011;40838;50.676;7.838;2024-03-23T14:16:04;14.32;;;2.55;;
54935;SDS011;40838;50.676;7.838;2024-03-23T14:18:30;6.20;;;2.45;;
54935;SDS011;40838;50.676;7.838;2024-03-23T14:20:57;8.13;;;2.88;;
54935;SDS011;40838;50.676;7.838;2024-03-23T14:23:24;5.57;;;2.65;;
54935;SDS011;40838;50.676;7.838;2024-03-23T14:25:56;3.53;;;1.52;;
54935;SDS011;40838;50.676;7.838;2024-03-23T14:28:22;11.05;;;4.43;;
54935;SDS011;40838;50.676;7.838;2024-03-23T14:30:49;3.20;;;2.05;;
54935;SDS011;40838;50.676;7.838;2024-03-23T14:33:15;5.80;;;1.83;;
54935;SDS011;40838;50.676;7.838;2024-03-23T14:35:43;3.33;;;1.98;;
54935;SDS011;40838;50.676;7.838;2024-03-23T14:38:09;3.63;;;1.90;;
54935;SDS011;40838;50.676;7.838;2024-03-23T14:40:36;2.90;;;1.30;;
54935;SDS011;40838;50.676;7.838;2024-03-23T14:43:03;9.27;;;1.65;;
54935;SDS011;40838;50.676;7.838;2024-03-23T14:45:30;3.22;;;1.55;;
54935;SDS011;40838;50.676;7.838;2024-03-23T14:47:56;4.78;;;1.73;;
54935;SDS011;40838;50.676;7.838;2024-03-23T14:50:24;4.65;;;1.35;;
54935;SDS011;40838;50.676;7.838;2024-03-23T14:52:50;3.75;;;1.42;;
54935;SDS011;40838;50.676;7.838;2024-03-23T14:55:17;3.38;;;1.40;;
54935;SDS011;40838;50.676;7.838;2024-03-23T14:57:43;5.00;;;1.63;;
54935;SDS011;40838;50.676;7.838;2024-03-23T15:00:12;5.20;;;1.70;;
54935;SDS011;40838;50.676;7.838;2024-03-23T15:02:38;6.07;;;2.15;;
54935;SDS011;40838;50.676;7.838;2024-03-23T15:05:05;5.13;;;2.38;;
54935;SDS011;40838;50.676;7.838;2024-03-23T15:07:35;6.57;;;3.08;;
54935;SDS011;40838;50.676;7.838;2024-03-23T15:10:03;5.07;;;1.65;;
54935;SDS011;40838;50.676;7.838;2024-03-23T15:12:30;2.85;;;2.22;;
54935;SDS011;40838;50.676;7.838;2024-03-23T15:14:58;8.98;;;3.22;;
54935;SDS011;40838;50.676;7.838;2024-03-23T15:17:25;3.65;;;2.10;;
54935;SDS011;40838;50.676;7.838;2024-03-23T15:19:52;7.18;;;2.80;;
54935;SDS011;40838;50.676;7.838;2024-03-23T15:22:19;17.52;;;6.68;;
54935;SDS011;40838;50.676;7.838;2024-03-23T15:24:46;7.97;;;2.75;;
54935;SDS011;40838;50.676;7.838;2024-03-23T15:27:12;5.93;;;2.88;;
54935;SDS011;40838;50.676;7.838;2024-03-23T15:29:39;10.15;;;2.67;;
54935;SDS011;40838;50.676;7.838;2024-03-23T15:32:05;8.88;;;3.53;;
54935;SDS011;40838;50.676;7.838;2024-03-23T15:34:33;10.25;;;2.53;;
54935;SDS011;40838;50.676;7.838;2024-03-23T15:36:59;5.97;;;2.15;;